This is the latest recevied weather packets stored in our database for station/object WC4PEM-11. If no packets are shown the sender has not sent any weather packets the latest 10 day(s).
| Time | Temp. | Humidity | Pressure | Rain* | Wind** | Luminosity | Snow |
|---|---|---|---|---|---|---|---|
| 1777508177 | 26.11° C | 71% | 1012.1 hPa | 0 mm | - | - | - |
| 1777507999 | 26.11° C | 71% | 1012.1 hPa | 0 mm | - | - | - |
| 1777507699 | 26.11° C | 70% | 1012.1 hPa | 0 mm | - | - | - |
| 1777507399 | 26.11° C | 70% | 1012.1 hPa | 0 mm | - | - | - |
| 1777507099 | 26.67° C | 69% | 1012.1 hPa | 0 mm | - | - | - |
| 1777506799 | 26.67° C | 68% | 1012 hPa | 0 mm | - | - | - |
| 1777506499 | 26.67° C | 67% | 1011.9 hPa | 0 mm | - | - | - |
| 1777506375 | 29.44° C | 60% | 1011.5 hPa | 0 mm | - | - | - |
| 1777506199 | 27.22° C | 67% | 1011.9 hPa | 0 mm | - | - | - |
| 1777505951 | 27.22° C | 66% | 1012 hPa | 0 mm | - | - | - |
| 1777505899 | 27.22° C | 66% | 1012 hPa | 0 mm | - | - | - |
| 1777505599 | 27.22° C | 64% | 1011.8 hPa | 0 mm | - | - | - |
| 1777505299 | 27.78° C | 62% | 1011.8 hPa | 0 mm | - | - | - |
| 1777504999 | 27.78° C | 62% | 1011.8 hPa | 0 mm | - | - | - |
| 1777504699 | 28.33° C | 62% | 1011.7 hPa | 0 mm | - | - | - |
| 1777504399 | 28.33° C | 61% | 1011.8 hPa | 0 mm | - | - | - |
| 1777504099 | 28.33° C | 61% | 1011.7 hPa | 0 mm | - | - | - |
| 1777503799 | 28.89° C | 61% | 1011.9 hPa | 0 mm | - | - | - |
| 1777503499 | 28.89° C | 60% | 1011.5 hPa | 0 mm | - | - | - |
| 1777503199 | 28.89° C | 60% | 1011.7 hPa | 0 mm | - | - | - |
| 1777502899 | 29.44° C | 60% | 1011.5 hPa | 0 mm | - | - | - |
| 1777502802 | 30° C | 58% | 1011.4 hPa | 0 mm | - | - | - |
| 1777502636 | 29.44° C | 59% | 1011.5 hPa | 0 mm | - | - | - |
| 1777502599 | 29.44° C | 59% | 1011.5 hPa | 0 mm | - | - | - |
| 1777502299 | 29.44° C | 59% | 1011.4 hPa | 0 mm | - | - | - |
* Rain latest hour (hover to see other rain measurements)
** Current wind speed in m/s (hover to see current wind gust speed)